sensor_id;sensor_type;location;lat;lon;timestamp;pressure;altitude;pressure_sealevel;temperature;humidity
31121;BME280;17770;45.966;13.632;2023-12-28T00:01:36;101664.50;;;16.31;63.45
31121;BME280;17770;45.966;13.632;2023-12-28T00:04:02;101666.25;;;16.31;63.42
31121;BME280;17770;45.966;13.632;2023-12-28T00:06:28;101658.47;;;16.31;63.47
31121;BME280;17770;45.966;13.632;2023-12-28T00:08:54;101666.25;;;16.31;63.86
31121;BME280;17770;45.966;13.632;2023-12-28T00:11:20;101663.66;;;16.31;63.32
31121;BME280;17770;45.966;13.632;2023-12-28T00:13:47;101664.59;;;16.28;63.55
31121;BME280;17770;45.966;13.632;2023-12-28T00:16:13;101668.91;;;16.29;64.00
31121;BME280;17770;45.966;13.632;2023-12-28T00:18:39;101673.22;;;16.30;63.28
31121;BME280;17770;45.966;13.632;2023-12-28T00:21:05;101677.56;;;16.30;63.98
31121;BME280;17770;45.966;13.632;2023-12-28T00:23:31;101674.06;;;16.31;63.49
31121;BME280;17770;45.966;13.632;2023-12-28T00:25:57;101678.47;;;16.29;63.48
31121;BME280;17770;45.966;13.632;2023-12-28T00:28:23;101674.06;;;16.31;63.90
31121;BME280;17770;45.966;13.632;2023-12-28T00:30:49;101677.56;;;16.30;63.88
31121;BME280;17770;45.966;13.632;2023-12-28T00:33:16;101674.06;;;16.31;63.29
31121;BME280;17770;45.966;13.632;2023-12-28T00:35:41;101674.06;;;16.31;63.50
31121;BME280;17770;45.966;13.632;2023-12-28T00:38:08;101675.81;;;16.30;63.40
31121;BME280;17770;45.966;13.632;2023-12-28T00:40:34;101675.88;;;16.29;63.48
31121;BME280;17770;45.966;13.632;2023-12-28T00:43:00;101676.84;;;16.25;63.49
31121;BME280;17770;45.966;13.632;2023-12-28T00:45:26;101681.13;;;16.27;63.72
31121;BME280;17770;45.966;13.632;2023-12-28T00:47:53;101682.00;;;16.28;63.42
31121;BME280;17770;45.966;13.632;2023-12-28T00:50:25;101681.13;;;16.27;63.61
31121;BME280;17770;45.966;13.632;2023-12-28T00:52:53;101676.78;;;16.28;63.50
31121;BME280;17770;45.966;13.632;2023-12-28T00:55:21;101680.16;;;16.30;63.95
31121;BME280;17770;45.966;13.632;2023-12-28T00:57:47;101678.53;;;16.27;63.22
31121;BME280;17770;45.966;13.632;2023-12-28T01:00:13;101676.72;;;16.29;63.81
31121;BME280;17770;45.966;13.632;2023-12-28T01:02:40;101675.00;;;16.28;63.90
31121;BME280;17770;45.966;13.632;2023-12-28T01:05:06;101675.91;;;16.27;63.88
31121;BME280;17770;45.966;13.632;2023-12-28T01:07:34;101669.81;;;16.28;63.28
31121;BME280;17770;45.966;13.632;2023-12-28T01:10:00;101677.59;;;16.28;63.70
31121;BME280;17770;45.966;13.632;2023-12-28T01:12:26;101675.88;;;16.29;63.75
31121;BME280;17770;45.966;13.632;2023-12-28T01:14:55;101674.19;;;16.28;63.13
31121;BME280;17770;45.966;13.632;2023-12-28T01:17:21;101679.38;;;16.28;63.95
31121;BME280;17770;45.966;13.632;2023-12-28T01:19:47;101683.69;;;16.29;63.27
31121;BME280;17770;45.966;13.632;2023-12-28T01:22:13;101679.38;;;16.28;63.64
31121;BME280;17770;45.966;13.632;2023-12-28T01:24:39;101686.34;;;16.27;63.84
31121;BME280;17770;45.966;13.632;2023-12-28T01:27:05;101679.38;;;16.28;63.16
31121;BME280;17770;45.966;13.632;2023-12-28T01:29:32;101682.00;;;16.26;63.47
31121;BME280;17770;45.966;13.632;2023-12-28T01:31:59;101678.53;;;16.27;63.31
31121;BME280;17770;45.966;13.632;2023-12-28T01:34:26;101681.94;;;16.29;63.67
31121;BME280;17770;45.966;13.632;2023-12-28T01:36:52;101686.34;;;16.27;63.56
31121;BME280;17770;45.966;13.632;2023-12-28T01:39:18;101682.97;;;16.24;63.71
31121;BME280;17770;45.966;13.632;2023-12-28T01:41:45;101675.97;;;16.26;63.72
31121;BME280;17770;45.966;13.632;2023-12-28T01:44:13;101676.81;;;16.26;63.39
31121;BME280;17770;45.966;13.632;2023-12-28T01:46:39;101679.38;;;16.28;63.70
31121;BME280;17770;45.966;13.632;2023-12-28T01:49:06;101678.53;;;16.27;63.10
31121;BME280;17770;45.966;13.632;2023-12-28T01:51:32;101669.00;;;16.26;63.26
31121;BME280;17770;45.966;13.632;2023-12-28T01:53:58;101674.19;;;16.26;63.25
31121;BME280;17770;45.966;13.632;2023-12-28T01:56:26;101677.75;;;16.24;64.04
31121;BME280;17770;45.966;13.632;2023-12-28T01:58:53;101679.50;;;16.23;63.85
31121;BME280;17770;45.966;13.632;2023-12-28T02:01:21;101676.84;;;16.25;63.65
31121;BME280;17770;45.966;13.632;2023-12-28T02:03:49;101676.94;;;16.22;63.63
31121;BME280;17770;45.966;13.632;2023-12-28T02:06:16;101674.19;;;16.26;63.58
31121;BME280;17770;45.966;13.632;2023-12-28T02:08:43;101675.06;;;16.27;63.41
31121;BME280;17770;45.966;13.632;2023-12-28T02:11:11;101675.97;;;16.26;63.76
31121;BME280;17770;45.966;13.632;2023-12-28T02:13:38;101666.50;;;16.23;63.32
31121;BME280;17770;45.966;13.632;2023-12-28T02:16:12;101664.75;;;16.24;63.29
31121;BME280;17770;45.966;13.632;2023-12-28T02:18:45;101667.41;;;16.22;63.93
31121;BME280;17770;45.966;13.632;2023-12-28T02:21:13;101655.19;;;16.24;63.83
31121;BME280;17770;45.966;13.632;2023-12-28T02:23:50;101656.03;;;16.25;63.77
31121;BME280;17770;45.966;13.632;2023-12-28T02:26:16;101647.38;;;16.24;63.76
31121;BME280;17770;45.966;13.632;2023-12-28T02:28:43;101643.97;;;16.22;63.71
31121;BME280;17770;45.966;13.632;2023-12-28T02:31:10;101631.78;;;16.24;63.31
31121;BME280;17770;45.966;13.632;2023-12-28T02:33:43;101629.16;;;16.24;63.72
31121;BME280;17770;45.966;13.632;2023-12-28T02:36:14;101640.50;;;16.22;63.78
31121;BME280;17770;45.966;13.632;2023-12-28T02:38:42;101624.06;;;16.21;63.85
31121;BME280;17770;45.966;13.632;2023-12-28T02:41:09;101624.06;;;16.21;63.94
31121;BME280;17770;45.966;13.632;2023-12-28T02:43:37;101624.91;;;16.22;63.28
31121;BME280;17770;45.966;13.632;2023-12-28T02:46:05;101623.97;;;16.24;63.29
31121;BME280;17770;45.966;13.632;2023-12-28T02:48:31;101624.94;;;16.20;63.54
31121;BME280;17770;45.966;13.632;2023-12-28T02:50:57;101616.22;;;16.23;63.25
31121;BME280;17770;45.966;13.632;2023-12-28T02:53:24;101623.25;;;16.19;63.51
31121;BME280;17770;45.966;13.632;2023-12-28T02:55:50;101621.47;;;16.21;63.88
31121;BME280;17770;45.966;13.632;2023-12-28T02:58:16;101629.22;;;16.23;63.67
31121;BME280;17770;45.966;13.632;2023-12-28T03:00:42;101621.41;;;16.23;63.67
31121;BME280;17770;45.966;13.632;2023-12-28T03:03:08;101626.56;;;16.24;63.86
31121;BME280;17770;45.966;13.632;2023-12-28T03:05:34;101623.97;;;16.24;63.64
31121;BME280;17770;45.966;13.632;2023-12-28T03:08:01;101626.66;;;16.21;63.66
31121;BME280;17770;45.966;13.632;2023-12-28T03:10:27;101617.09;;;16.22;63.87
31121;BME280;17770;45.966;13.632;2023-12-28T03:12:53;101621.47;;;16.21;63.86
31121;BME280;17770;45.966;13.632;2023-12-28T03:15:19;101616.28;;;16.20;63.88
31121;BME280;17770;45.966;13.632;2023-12-28T03:17:45;101609.38;;;16.19;63.50
31121;BME280;17770;45.966;13.632;2023-12-28T03:20:12;101612.75;;;16.22;63.23
31121;BME280;17770;45.966;13.632;2023-12-28T03:22:40;101611.13;;;16.18;63.86
31121;BME280;17770;45.966;13.632;2023-12-28T03:25:06;101600.66;;;16.20;63.65
31121;BME280;17770;45.966;13.632;2023-12-28T03:27:33;101598.91;;;16.20;63.37
31121;BME280;17770;45.966;13.632;2023-12-28T03:30:00;101595.47;;;16.20;63.11
31121;BME280;17770;45.966;13.632;2023-12-28T03:32:26;101597.19;;;16.21;63.70
31121;BME280;17770;45.966;13.632;2023-12-28T03:34:52;101592.03;;;16.19;63.26
31121;BME280;17770;45.966;13.632;2023-12-28T03:37:18;101593.72;;;16.20;63.67
31121;BME280;17770;45.966;13.632;2023-12-28T03:39:44;101592.91;;;16.18;63.38
31121;BME280;17770;45.966;13.632;2023-12-28T03:42:11;101592.84;;;16.20;63.63
31121;BME280;17770;45.966;13.632;2023-12-28T03:44:38;101592.03;;;16.19;63.41
31121;BME280;17770;45.966;13.632;2023-12-28T03:47:04;101590.31;;;16.18;63.86
31121;BME280;17770;45.966;13.632;2023-12-28T03:49:30;101586.75;;;16.21;63.73
31121;BME280;17770;45.966;13.632;2023-12-28T03:51:59;101591.09;;;16.20;63.31
31121;BME280;17770;45.966;13.632;2023-12-28T03:54:25;101581.66;;;16.18;63.18
31121;BME280;17770;45.966;13.632;2023-12-28T03:56:51;101583.34;;;16.19;63.56
31121;BME280;17770;45.966;13.632;2023-12-28T03:59:17;101585.91;;;16.20;63.87
31121;BME280;17770;45.966;13.632;2023-12-28T04:01:45;101585.09;;;16.18;63.49
31121;BME280;17770;45.966;13.632;2023-12-28T04:04:11;101586.00;;;16.17;63.60
31121;BME280;17770;45.966;13.632;2023-12-28T04:06:38;101595.47;;;16.20;63.56
31121;BME280;17770;45.966;13.632;2023-12-28T04:09:13;101587.75;;;16.17;63.69
31121;BME280;17770;45.966;13.632;2023-12-28T04:11:39;101592.03;;;16.19;63.58
31121;BME280;17770;45.966;13.632;2023-12-28T04:14:06;101598.06;;;16.20;63.84
31121;BME280;17770;45.966;13.632;2023-12-28T04:16:32;101587.66;;;16.20;63.65
31121;BME280;17770;45.966;13.632;2023-12-28T04:18:59;101592.84;;;16.20;63.61
31121;BME280;17770;45.966;13.632;2023-12-28T04:21:25;101591.22;;;16.17;63.43
31121;BME280;17770;45.966;13.632;2023-12-28T04:23:52;101591.28;;;16.16;63.38
31121;BME280;17770;45.966;13.632;2023-12-28T04:26:21;101595.56;;;16.17;63.73
31121;BME280;17770;45.966;13.632;2023-12-28T04:28:48;101596.47;;;16.16;63.35
31121;BME280;17770;45.966;13.632;2023-12-28T04:31:15;101592.97;;;16.17;63.08
31121;BME280;17770;45.966;13.632;2023-12-28T04:33:41;101594.63;;;16.19;63.14
31121;BME280;17770;45.966;13.632;2023-12-28T04:36:10;101586.06;;;16.16;63.47
31121;BME280;17770;45.966;13.632;2023-12-28T04:38:37;101587.69;;;16.18;63.38
31121;BME280;17770;45.966;13.632;2023-12-28T04:41:06;101599.06;;;16.16;63.59
31121;BME280;17770;45.966;13.632;2023-12-28T04:43:35;101593.81;;;16.17;63.63
31121;BME280;17770;45.966;13.632;2023-12-28T04:46:05;101603.25;;;16.20;63.47
31121;BME280;17770;45.966;13.632;2023-12-28T04:48:32;101597.28;;;16.18;63.49
31121;BME280;17770;45.966;13.632;2023-12-28T04:50:58;101608.53;;;16.18;63.14
31121;BME280;17770;45.966;13.632;2023-12-28T04:53:25;101610.25;;;16.19;63.20
31121;BME280;17770;45.966;13.632;2023-12-28T04:55:55;101608.53;;;16.18;63.40
31121;BME280;17770;45.966;13.632;2023-12-28T04:58:23;101610.28;;;16.18;63.29
31121;BME280;17770;45.966;13.632;2023-12-28T05:00:49;101612.91;;;16.18;63.22
31121;BME280;17770;45.966;13.632;2023-12-28T05:03:18;101605.97;;;16.17;63.11
31121;BME280;17770;45.966;13.632;2023-12-28T05:05:46;101610.28;;;16.18;63.42
31121;BME280;17770;45.966;13.632;2023-12-28T05:08:16;101608.63;;;16.15;63.71
31121;BME280;17770;45.966;13.632;2023-12-28T05:10:43;101616.38;;;16.17;63.73
31121;BME280;17770;45.966;13.632;2023-12-28T05:13:10;101617.25;;;16.17;63.29
31121;BME280;17770;45.966;13.632;2023-12-28T05:15:37;101620.78;;;16.15;63.32
31121;BME280;17770;45.966;13.632;2023-12-28T05:18:05;101614.75;;;16.14;63.22
31121;BME280;17770;45.966;13.632;2023-12-28T05:20:35;101617.34;;;16.14;63.20
31121;BME280;17770;45.966;13.632;2023-12-28T05:23:01;101625.09;;;16.16;63.18
31121;BME280;17770;45.966;13.632;2023-12-28T05:25:27;101619.03;;;16.15;63.55
31121;BME280;17770;45.966;13.632;2023-12-28T05:27:55;101619.84;;;16.17;63.89
31121;BME280;17770;45.966;13.632;2023-12-28T05:30:22;101619.91;;;16.16;63.30
31121;BME280;17770;45.966;13.632;2023-12-28T05:32:48;101616.63;;;16.09;63.77
31121;BME280;17770;45.966;13.632;2023-12-28T05:35:14;101622.59;;;16.13;63.11
31121;BME280;17770;45.966;13.632;2023-12-28T05:37:40;101621.84;;;16.09;63.93
31121;BME280;17770;45.966;13.632;2023-12-28T05:40:06;101625.25;;;16.11;63.58
31121;BME280;17770;45.966;13.632;2023-12-28T05:42:35;101621.75;;;16.12;63.68
31121;BME280;17770;45.966;13.632;2023-12-28T05:45:03;101618.34;;;16.10;63.92
31121;BME280;17770;45.966;13.632;2023-12-28T05:47:29;101625.16;;;16.14;63.75
31121;BME280;17770;45.966;13.632;2023-12-28T05:49:56;101627.75;;;16.14;63.34
31121;BME280;17770;45.966;13.632;2023-12-28T05:52:22;101622.59;;;16.13;63.77
31121;BME280;17770;45.966;13.632;2023-12-28T05:54:48;101624.41;;;16.11;63.22
31121;BME280;17770;45.966;13.632;2023-12-28T05:57:14;101626.94;;;16.12;63.26
31121;BME280;17770;45.966;13.632;2023-12-28T05:59:40;101628.69;;;16.12;63.41
31121;BME280;17770;45.966;13.632;2023-12-28T06:02:06;101623.44;;;16.13;63.46
31121;BME280;17770;45.966;13.632;2023-12-28T06:04:32;101622.59;;;16.13;63.09
31121;BME280;17770;45.966;13.632;2023-12-28T06:06:58;101620.88;;;16.12;63.09
31121;BME280;17770;45.966;13.632;2023-12-28T06:09:25;101617.44;;;16.11;63.59
31121;BME280;17770;45.966;13.632;2023-12-28T06:11:54;101614.91;;;16.08;63.27
31121;BME280;17770;45.966;13.632;2023-12-28T06:14:20;101624.50;;;16.08;63.75
31121;BME280;17770;45.966;13.632;2023-12-28T06:16:46;101619.19;;;16.11;63.32
31121;BME280;17770;45.966;13.632;2023-12-28T06:19:12;101623.50;;;16.12;63.72
31121;BME280;17770;45.966;13.632;2023-12-28T06:21:41;101626.09;;;16.12;63.78
31121;BME280;17770;45.966;13.632;2023-12-28T06:24:08;101619.13;;;16.12;63.25
31121;BME280;17770;45.966;13.632;2023-12-28T06:26:38;101619.19;;;16.11;63.23
31121;BME280;17770;45.966;13.632;2023-12-28T06:29:06;101628.78;;;16.09;63.71
31121;BME280;17770;45.966;13.632;2023-12-28T06:31:32;101621.75;;;16.12;63.22
31121;BME280;17770;45.966;13.632;2023-12-28T06:34:02;101618.38;;;16.09;63.11
31121;BME280;17770;45.966;13.632;2023-12-28T06:36:29;101630.41;;;16.13;63.74
31121;BME280;17770;45.966;13.632;2023-12-28T06:38:56;101631.28;;;16.12;63.29
31121;BME280;17770;45.966;13.632;2023-12-28T06:41:22;101635.63;;;16.13;63.59
31121;BME280;17770;45.966;13.632;2023-12-28T06:43:49;101632.16;;;16.12;63.46
31121;BME280;17770;45.966;13.632;2023-12-28T06:46:15;101629.56;;;16.12;63.04
31121;BME280;17770;45.966;13.632;2023-12-28T06:48:41;101640.81;;;16.13;63.30
31121;BME280;17770;45.966;13.632;2023-12-28T06:51:09;101642.56;;;16.12;63.24
31121;BME280;17770;45.966;13.632;2023-12-28T06:53:35;101634.75;;;16.12;63.07
31121;BME280;17770;45.966;13.632;2023-12-28T06:56:01;101633.91;;;16.12;63.35
31121;BME280;17770;45.966;13.632;2023-12-28T06:58:27;101643.44;;;16.13;63.26
31121;BME280;17770;45.966;13.632;2023-12-28T07:00:53;101640.88;;;16.11;63.04
31121;BME280;17770;45.966;13.632;2023-12-28T07:03:22;101630.47;;;16.11;63.42
31121;BME280;17770;45.966;13.632;2023-12-28T07:05:50;101629.59;;;16.11;63.16
31121;BME280;17770;45.966;13.632;2023-12-28T07:08:16;101631.28;;;16.12;63.30
31121;BME280;17770;45.966;13.632;2023-12-28T07:10:43;101634.81;;;16.11;63.71
31121;BME280;17770;45.966;13.632;2023-12-28T07:13:09;101636.56;;;16.10;63.10
31121;BME280;17770;45.966;13.632;2023-12-28T07:15:36;101630.47;;;16.10;63.57
31121;BME280;17770;45.966;13.632;2023-12-28T07:18:04;101627.88;;;16.11;63.11
31121;BME280;17770;45.966;13.632;2023-12-28T07:20:30;101629.59;;;16.11;63.41
31121;BME280;17770;45.966;13.632;2023-12-28T07:22:56;101621.91;;;16.08;63.74
31121;BME280;17770;45.966;13.632;2023-12-28T07:25:22;101629.59;;;16.11;63.52
31121;BME280;17770;45.966;13.632;2023-12-28T07:27:48;101629.56;;;16.12;63.70
31121;BME280;17770;45.966;13.632;2023-12-28T07:30:14;101628.75;;;16.10;63.81
31121;BME280;17770;45.966;13.632;2023-12-28T07:32:43;101633.94;;;16.10;63.44
31121;BME280;17770;45.966;13.632;2023-12-28T07:35:11;101630.47;;;16.11;63.48
31121;BME280;17770;45.966;13.632;2023-12-28T07:37:39;101626.94;;;16.12;63.17
31121;BME280;17770;45.966;13.632;2023-12-28T07:40:06;101632.16;;;16.12;62.99
31121;BME280;17770;45.966;13.632;2023-12-28T07:42:34;101632.16;;;16.12;63.36
31121;BME280;17770;45.966;13.632;2023-12-28T07:45:02;101622.59;;;16.13;63.25
31121;BME280;17770;45.966;13.632;2023-12-28T07:47:29;101627.00;;;16.11;63.12
31121;BME280;17770;45.966;13.632;2023-12-28T07:49:57;101625.25;;;16.11;63.66
31121;BME280;17770;45.966;13.632;2023-12-28T07:52:25;101619.13;;;16.12;63.59
31121;BME280;17770;45.966;13.632;2023-12-28T07:54:51;101626.94;;;16.12;63.66
31121;BME280;17770;45.966;13.632;2023-12-28T07:57:17;101626.94;;;16.12;62.99
31121;BME280;17770;45.966;13.632;2023-12-28T07:59:44;101627.81;;;16.13;63.25
31121;BME280;17770;45.966;13.632;2023-12-28T08:02:11;101633.00;;;16.13;63.46
31121;BME280;17770;45.966;13.632;2023-12-28T08:04:39;101638.28;;;16.11;63.45
31121;BME280;17770;45.966;13.632;2023-12-28T08:07:08;101635.63;;;16.13;63.25
31121;BME280;17770;45.966;13.632;2023-12-28T08:09:35;101626.94;;;16.12;63.64
31121;BME280;17770;45.966;13.632;2023-12-28T08:12:03;101634.75;;;16.12;62.86
31121;BME280;17770;45.966;13.632;2023-12-28T08:14:30;101630.41;;;16.13;63.29
31121;BME280;17770;45.966;13.632;2023-12-28T08:16:56;101641.69;;;16.12;62.99
31121;BME280;17770;45.966;13.632;2023-12-28T08:19:23;101644.31;;;16.12;62.96
31121;BME280;17770;45.966;13.632;2023-12-28T08:21:49;101640.88;;;16.11;63.12
31121;BME280;17770;45.966;13.632;2023-12-28T08:24:15;101639.06;;;16.13;63.07
31121;BME280;17770;45.966;13.632;2023-12-28T08:26:42;101646.09;;;16.10;63.79
31121;BME280;17770;45.966;13.632;2023-12-28T08:29:08;101641.75;;;16.10;63.36
31121;BME280;17770;45.966;13.632;2023-12-28T08:31:34;101650.41;;;16.11;63.06
31121;BME280;17770;45.966;13.632;2023-12-28T08:33:59;101648.69;;;16.11;63.24
31121;BME280;17770;45.966;13.632;2023-12-28T08:36:25;101653.03;;;16.11;63.65
31121;BME280;17770;45.966;13.632;2023-12-28T08:38:51;101650.38;;;16.12;63.06
31121;BME280;17770;45.966;13.632;2023-12-28T08:43:46;101663.44;;;16.11;63.61
31121;BME280;17770;45.966;13.632;2023-12-28T08:46:13;101660.84;;;16.11;63.54
31121;BME280;17770;45.966;13.632;2023-12-28T08:48:40;101674.72;;;16.10;63.45
31121;BME280;17770;45.966;13.632;2023-12-28T08:51:06;101679.00;;;16.12;63.44
31121;BME280;17770;45.966;13.632;2023-12-28T08:53:32;101682.50;;;16.11;63.37
31121;BME280;17770;45.966;13.632;2023-12-28T08:55:58;101681.66;;;16.11;63.49
31121;BME280;17770;45.966;13.632;2023-12-28T08:58:24;101685.13;;;16.11;63.59
31121;BME280;17770;45.966;13.632;2023-12-28T09:00:50;101691.19;;;16.10;63.39
31121;BME280;17770;45.966;13.632;2023-12-28T09:03:16;101693.84;;;16.09;63.52
31121;BME280;17770;45.966;13.632;2023-12-28T09:05:41;101690.38;;;16.08;63.55
31121;BME280;17770;45.966;13.632;2023-12-28T09:08:07;101687.75;;;16.10;63.53
31121;BME280;17770;45.966;13.632;2023-12-28T09:10:33;101685.13;;;16.10;63.58
31121;BME280;17770;45.966;13.632;2023-12-28T09:12:59;101686.84;;;16.11;63.97
31121;BME280;17770;45.966;13.632;2023-12-28T09:15:25;101686.91;;;16.09;63.76
31121;BME280;17770;45.966;13.632;2023-12-28T09:17:51;101686.91;;;16.09;63.78
31121;BME280;17770;45.966;13.632;2023-12-28T09:20:18;101680.84;;;16.09;63.23
31121;BME280;17770;45.966;13.632;2023-12-28T09:22:44;101684.25;;;16.11;63.28
31121;BME280;17770;45.966;13.632;2023-12-28T09:25:10;101684.31;;;16.09;63.50
31121;BME280;17770;45.966;13.632;2023-12-28T09:27:36;101683.41;;;16.10;63.58
31121;BME280;17770;45.966;13.632;2023-12-28T09:30:01;101683.34;;;16.12;63.69
31121;BME280;17770;45.966;13.632;2023-12-28T09:32:29;101684.34;;;16.08;63.62
31121;BME280;17770;45.966;13.632;2023-12-28T09:34:54;101682.47;;;16.13;64.23
31121;BME280;17770;45.966;13.632;2023-12-28T09:37:20;101674.56;;;16.16;64.64
31121;BME280;17770;45.966;13.632;2023-12-28T09:39:46;101671.03;;;16.17;65.05
31121;BME280;17770;45.966;13.632;2023-12-28T09:42:29;101675.16;;;16.24;65.61
31121;BME280;17770;45.966;13.632;2023-12-28T09:44:57;101676.31;;;16.41;64.96
31121;BME280;17770;45.966;13.632;2023-12-28T09:47:23;101667.28;;;16.53;64.33
31121;BME280;17770;45.966;13.632;2023-12-28T09:49:49;101670.31;;;16.67;65.18
31121;BME280;17770;45.966;13.632;2023-12-28T09:52:15;101665.47;;;16.81;65.55
31121;BME280;17770;45.966;13.632;2023-12-28T09:54:41;101655.66;;;16.89;66.00
31121;BME280;17770;45.966;13.632;2023-12-28T09:57:07;101644.16;;;16.94;66.28
31121;BME280;17770;45.966;13.632;2023-12-28T09:59:32;101637.81;;;17.02;66.84
31121;BME280;17770;45.966;13.632;2023-12-28T10:02:00;101641.91;;;17.09;67.56
31121;BME280;17770;45.966;13.632;2023-12-28T10:04:26;101640.75;;;17.16;68.50
31121;BME280;17770;45.966;13.632;2023-12-28T10:06:54;101641.41;;;17.22;68.11
31121;BME280;17770;45.966;13.632;2023-12-28T10:09:21;101641.19;;;17.28;67.88
31121;BME280;17770;45.966;13.632;2023-12-28T10:11:47;101635.81;;;17.33;68.58
31121;BME280;17770;45.966;13.632;2023-12-28T10:14:13;101633.88;;;17.38;69.42
31121;BME280;17770;45.966;13.632;2023-12-28T10:16:40;101635.47;;;17.42;68.09
31121;BME280;17770;45.966;13.632;2023-12-28T10:19:06;101632.44;;;17.29;67.68
31121;BME280;17770;45.966;13.632;2023-12-28T10:21:32;101631.88;;;17.21;67.20
31121;BME280;17770;45.966;13.632;2023-12-28T10:23:58;101635.56;;;17.16;67.89
31121;BME280;17770;45.966;13.632;2023-12-28T10:26:24;101631.31;;;17.13;67.81
31121;BME280;17770;45.966;13.632;2023-12-28T10:28:50;101638.34;;;17.11;66.80
31121;BME280;17770;45.966;13.632;2023-12-28T10:31:16;101635.53;;;17.17;65.43
31121;BME280;17770;45.966;13.632;2023-12-28T10:33:41;101633.94;;;17.13;64.50
31121;BME280;17770;45.966;13.632;2023-12-28T10:36:08;101640.25;;;17.06;64.78
31121;BME280;17770;45.966;13.632;2023-12-28T10:38:34;101629.25;;;16.98;64.93
31121;BME280;17770;45.966;13.632;2023-12-28T10:41:06;101639.00;;;16.93;64.68
31121;BME280;17770;45.966;13.632;2023-12-28T10:43:33;101638.34;;;16.86;64.69
31121;BME280;17770;45.966;13.632;2023-12-28T10:46:04;101637.53;;;16.84;64.43
31121;BME280;17770;45.966;13.632;2023-12-28T10:48:32;101643.84;;;16.79;64.68
31121;BME280;17770;45.966;13.632;2023-12-28T10:51:01;101642.19;;;16.76;64.29
31121;BME280;17770;45.966;13.632;2023-12-28T10:53:38;101639.63;;;16.75;64.27
31121;BME280;17770;45.966;13.632;2023-12-28T11:01:12;101623.47;;;16.65;64.71
31121;BME280;17770;45.966;13.632;2023-12-28T11:03:43;101627.81;;;16.65;64.45
31121;BME280;17770;45.966;13.632;2023-12-28T11:06:10;101615.75;;;16.62;64.38
31121;BME280;17770;45.966;13.632;2023-12-28T11:08:37;101616.69;;;16.60;64.37
31121;BME280;17770;45.966;13.632;2023-12-28T11:11:04;101621.09;;;16.58;64.59
31121;BME280;17770;45.966;13.632;2023-12-28T11:13:32;101615.91;;;16.58;64.55
31121;BME280;17770;45.966;13.632;2023-12-28T11:15:58;101614.25;;;16.55;64.65
31121;BME280;17770;45.966;13.632;2023-12-28T11:18:24;101608.13;;;16.56;64.63
31121;BME280;17770;45.966;13.632;2023-12-28T11:20:51;101612.53;;;16.56;64.08
31121;BME280;17770;45.966;13.632;2023-12-28T11:23:17;101603.03;;;16.53;64.62
31121;BME280;17770;45.966;13.632;2023-12-28T11:25:43;101599.63;;;16.51;64.75
31121;BME280;17770;45.966;13.632;2023-12-28T11:28:12;101598.81;;;16.51;64.06
31121;BME280;17770;45.966;13.632;2023-12-28T11:30:41;101593.53;;;16.52;64.45
31121;BME280;17770;45.966;13.632;2023-12-28T11:33:07;101596.13;;;16.52;63.82
31121;BME280;17770;45.966;13.632;2023-12-28T11:35:36;101592.72;;;16.50;63.92
31121;BME280;17770;45.966;13.632;2023-12-28T11:38:03;101593.53;;;16.52;63.96
31121;BME280;17770;45.966;13.632;2023-12-28T11:40:32;101591.88;;;16.50;63.72
31121;BME280;17770;45.966;13.632;2023-12-28T11:43:04;101593.66;;;16.48;64.20
31121;BME280;17770;45.966;13.632;2023-12-28T11:45:41;101591.03;;;16.49;64.17
31121;BME280;17770;45.966;13.632;2023-12-28T11:48:11;101586.78;;;16.47;64.36
31121;BME280;17770;45.966;13.632;2023-12-28T11:50:47;101585.91;;;16.46;63.85
31121;BME280;17770;45.966;13.632;2023-12-28T11:53:13;101581.63;;;16.45;63.78
31121;BME280;17770;45.966;13.632;2023-12-28T11:55:39;101577.22;;;16.47;63.85
31121;BME280;17770;45.966;13.632;2023-12-28T11:58:06;101573.84;;;16.44;64.25
31121;BME280;17770;45.966;13.632;2023-12-28T12:00:32;101579.91;;;16.43;63.98
31121;BME280;17770;45.966;13.632;2023-12-28T12:02:58;101577.28;;;16.44;63.67
31121;BME280;17770;45.966;13.632;2023-12-28T12:05:23;101576.50;;;16.42;63.83
31121;BME280;17770;45.966;13.632;2023-12-28T12:07:49;101568.69;;;16.42;64.32
31121;BME280;17770;45.966;13.632;2023-12-28T12:10:15;101571.34;;;16.41;64.24
31121;BME280;17770;45.966;13.632;2023-12-28T12:12:42;101566.97;;;16.41;64.46
31121;BME280;17770;45.966;13.632;2023-12-28T12:15:08;101546.25;;;16.38;63.90
31121;BME280;17770;45.966;13.632;2023-12-28T12:17:34;101547.97;;;16.39;64.22
31121;BME280;17770;45.966;13.632;2023-12-28T12:20:00;101546.28;;;16.37;63.91
31121;BME280;17770;45.966;13.632;2023-12-28T12:22:27;101540.22;;;16.36;64.17
31121;BME280;17770;45.966;13.632;2023-12-28T12:24:54;101530.56;;;16.40;63.87
31121;BME280;17770;45.966;13.632;2023-12-28T12:27:22;101537.53;;;16.39;63.99
31121;BME280;17770;45.966;13.632;2023-12-28T12:29:51;101540.16;;;16.38;63.91
31121;BME280;17770;45.966;13.632;2023-12-28T12:32:16;101534.13;;;16.37;64.33
31121;BME280;17770;45.966;13.632;2023-12-28T12:34:42;101538.47;;;16.37;64.03
31121;BME280;17770;45.966;13.632;2023-12-28T12:37:08;101535.88;;;16.37;63.86
31121;BME280;17770;45.966;13.632;2023-12-28T12:39:34;101536.03;;;16.32;64.07
31121;BME280;17770;45.966;13.632;2023-12-28T12:42:01;101529.97;;;16.32;63.82
31121;BME280;17770;45.966;13.632;2023-12-28T12:44:28;101523.84;;;16.34;63.91
31121;BME280;17770;45.966;13.632;2023-12-28T12:46:58;101522.16;;;16.32;64.26